sensor_id;sensor_type;location;lat;lon;timestamp;pressure;altitude;pressure_sealevel;temperature;humidity
9899;BME280;4988;49.238;6.698;2024-02-04T00:01:17;100380.75;;;7.52;100.00
9899;BME280;4988;49.238;6.698;2024-02-04T00:03:43;100382.50;;;7.53;100.00
9899;BME280;4988;49.238;6.698;2024-02-04T00:06:08;100379.91;;;7.52;100.00
9899;BME280;4988;49.238;6.698;2024-02-04T00:08:33;100371.09;;;7.50;100.00
9899;BME280;4988;49.238;6.698;2024-02-04T00:10:59;100379.91;;;7.52;100.00
9899;BME280;4988;49.238;6.698;2024-02-04T00:13:24;100383.44;;;7.51;100.00
9899;BME280;4988;49.238;6.698;2024-02-04T00:15:49;100388.72;;;7.54;100.00
9899;BME280;4988;49.238;6.698;2024-02-04T00:18:15;100382.56;;;7.50;100.00
9899;BME280;4988;49.238;6.698;2024-02-04T00:20:40;100390.50;;;7.52;100.00
9899;BME280;4988;49.238;6.698;2024-02-04T00:23:05;100392.28;;;7.50;100.00
9899;BME280;4988;49.238;6.698;2024-02-04T00:25:31;100386.97;;;7.50;100.00
9899;BME280;4988;49.238;6.698;2024-02-04T00:27:56;100387.88;;;7.50;100.00
9899;BME280;4988;49.238;6.698;2024-02-04T00:30:21;100383.50;;;7.48;100.00
9899;BME280;4988;49.238;6.698;2024-02-04T00:32:47;100369.34;;;7.47;100.00
9899;BME280;4988;49.238;6.698;2024-02-04T00:35:12;100365.81;;;7.48;100.00
9899;BME280;4988;49.238;6.698;2024-02-04T00:37:37;100372.91;;;7.48;100.00
9899;BME280;4988;49.238;6.698;2024-02-04T00:40:03;100367.59;;;7.48;100.00
9899;BME280;4988;49.238;6.698;2024-02-04T00:42:29;100375.53;;;7.46;100.00
9899;BME280;4988;49.238;6.698;2024-02-04T00:44:54;100378.22;;;7.45;100.00
9899;BME280;4988;49.238;6.698;2024-02-04T00:47:19;100372.91;;;7.45;100.00
9899;BME280;4988;49.238;6.698;2024-02-04T00:49:45;100378.22;;;7.45;100.00
9899;BME280;4988;49.238;6.698;2024-02-04T00:52:10;100382.66;;;7.44;100.00
9899;BME280;4988;49.238;6.698;2024-02-04T00:54:35;100375.56;;;7.45;100.00
9899;BME280;4988;49.238;6.698;2024-02-04T00:57:01;100383.50;;;7.46;100.00
9899;BME280;4988;49.238;6.698;2024-02-04T00:59:26;100380.88;;;7.45;100.00
9899;BME280;4988;49.238;6.698;2024-02-04T01:01:51;100376.44;;;7.47;100.00
9899;BME280;4988;49.238;6.698;2024-02-04T01:04:16;100375.50;;;7.51;100.00
9899;BME280;4988;49.238;6.698;2024-02-04T01:06:42;100379.97;;;7.46;100.00
9899;BME280;4988;49.238;6.698;2024-02-04T01:09:07;100376.44;;;7.47;100.00
9899;BME280;4988;49.238;6.698;2024-02-04T01:11:33;100384.38;;;7.47;100.00
9899;BME280;4988;49.238;6.698;2024-02-04T01:13:58;100389.66;;;7.48;100.00
9899;BME280;4988;49.238;6.698;2024-02-04T01:16:24;100393.16;;;7.52;100.00
9899;BME280;4988;49.238;6.698;2024-02-04T01:18:49;100385.19;;;7.52;100.00
9899;BME280;4988;49.238;6.698;2024-02-04T01:21:14;100389.59;;;7.51;100.00
9899;BME280;4988;49.238;6.698;2024-02-04T01:23:40;100388.75;;;7.51;100.00
9899;BME280;4988;49.238;6.698;2024-02-04T01:26:05;100387.84;;;7.52;100.00
9899;BME280;4988;49.238;6.698;2024-02-04T01:28:30;100380.78;;;7.51;100.00
9899;BME280;4988;49.238;6.698;2024-02-04T01:30:56;100393.16;;;7.50;100.00
9899;BME280;4988;49.238;6.698;2024-02-04T01:33:21;100390.53;;;7.50;100.00
9899;BME280;4988;49.238;6.698;2024-02-04T01:35:46;100391.34;;;7.52;100.00
9899;BME280;4988;49.238;6.698;2024-02-04T01:38:11;100394.03;;;7.51;100.00
9899;BME280;4988;49.238;6.698;2024-02-04T01:40:37;100400.19;;;7.51;100.00
9899;BME280;4988;49.238;6.698;2024-02-04T01:43:02;100396.69;;;7.51;100.00
9899;BME280;4988;49.238;6.698;2024-02-04T01:45:27;100402.84;;;7.51;100.00
9899;BME280;4988;49.238;6.698;2024-02-04T01:47:53;100407.28;;;7.51;100.00
9899;BME280;4988;49.238;6.698;2024-02-04T01:50:20;100401.13;;;7.49;100.00
9899;BME280;4988;49.238;6.698;2024-02-04T01:52:46;100402.00;;;7.49;100.00
9899;BME280;4988;49.238;6.698;2024-02-04T01:55:12;100397.56;;;7.50;100.00
9899;BME280;4988;49.238;6.698;2024-02-04T01:57:39;100393.16;;;7.49;100.00
9899;BME280;4988;49.238;6.698;2024-02-04T02:00:04;100391.44;;;7.48;100.00
9899;BME280;4988;49.238;6.698;2024-02-04T02:02:30;100384.34;;;7.48;100.00
9899;BME280;4988;49.238;6.698;2024-02-04T02:04:59;100377.28;;;7.49;100.00
9899;BME280;4988;49.238;6.698;2024-02-04T02:07:25;100379.09;;;7.47;100.00
9899;BME280;4988;49.238;6.698;2024-02-04T02:09:52;100371.06;;;7.53;100.00
9899;BME280;4988;49.238;6.698;2024-02-04T02:12:25;100372.81;;;7.54;100.00
9899;BME280;4988;49.238;6.698;2024-02-04T02:15:00;100369.31;;;7.49;100.00
9899;BME280;4988;49.238;6.698;2024-02-04T02:17:51;100363.09;;;7.51;100.00
9899;BME280;4988;49.238;6.698;2024-02-04T02:20:41;100373.75;;;7.48;100.00
9899;BME280;4988;49.238;6.698;2024-02-04T02:23:09;100393.19;;;7.47;100.00
9899;BME280;4988;49.238;6.698;2024-02-04T02:25:37;100388.78;;;7.48;100.00
9899;BME280;4988;49.238;6.698;2024-02-04T02:28:03;100382.59;;;7.47;100.00
9899;BME280;4988;49.238;6.698;2024-02-04T02:30:29;100391.41;;;7.49;100.00
9899;BME280;4988;49.238;6.698;2024-02-04T02:32:54;100393.16;;;7.50;100.00
9899;BME280;4988;49.238;6.698;2024-02-04T02:35:20;100394.94;;;7.50;100.00
9899;BME280;4988;49.238;6.698;2024-02-04T02:40:32;100387.78;;;7.55;100.00
9899;BME280;4988;49.238;6.698;2024-02-04T02:43:01;100383.41;;;7.54;100.00
9899;BME280;4988;49.238;6.698;2024-02-04T02:45:27;100379.88;;;7.53;100.00
9899;BME280;4988;49.238;6.698;2024-02-04T02:47:54;100371.06;;;7.51;100.00
9899;BME280;4988;49.238;6.698;2024-02-04T02:50:20;100356.03;;;7.53;100.00
9899;BME280;4988;49.238;6.698;2024-02-04T02:52:45;100356.00;;;7.55;100.00
9899;BME280;4988;49.238;6.698;2024-02-04T02:55:11;100341.84;;;7.57;100.00
9899;BME280;4988;49.238;6.698;2024-02-04T02:57:36;100336.59;;;7.54;100.00
9899;BME280;4988;49.238;6.698;2024-02-04T03:00:02;100331.25;;;7.56;100.00
9899;BME280;4988;49.238;6.698;2024-02-04T03:02:28;100326.84;;;7.55;100.00
9899;BME280;4988;49.238;6.698;2024-02-04T03:04:54;100332.19;;;7.53;100.00
9899;BME280;4988;49.238;6.698;2024-02-04T03:07:19;100335.72;;;7.54;100.00
9899;BME280;4988;49.238;6.698;2024-02-04T03:09:45;100329.53;;;7.53;100.00
9899;BME280;4988;49.238;6.698;2024-02-04T03:12:10;100327.78;;;7.54;100.00
9899;BME280;4988;49.238;6.698;2024-02-04T03:14:35;100321.59;;;7.52;100.00
9899;BME280;4988;49.238;6.698;2024-02-04T03:17:01;100324.19;;;7.55;100.00
9899;BME280;4988;49.238;6.698;2024-02-04T03:19:26;100324.19;;;7.55;100.00
9899;BME280;4988;49.238;6.698;2024-02-04T03:21:51;100323.31;;;7.56;100.00
9899;BME280;4988;49.238;6.698;2024-02-04T03:24:16;100324.16;;;7.58;100.00
9899;BME280;4988;49.238;6.698;2024-02-04T03:26:42;100325.06;;;7.57;100.00
9899;BME280;4988;49.238;6.698;2024-02-04T03:29:07;100321.50;;;7.58;100.00
9899;BME280;4988;49.238;6.698;2024-02-04T03:31:33;100311.81;;;7.57;100.00
9899;BME280;4988;49.238;6.698;2024-02-04T03:33:58;100316.19;;;7.60;100.00
9899;BME280;4988;49.238;6.698;2024-02-04T03:36:24;100306.50;;;7.57;100.00
9899;BME280;4988;49.238;6.698;2024-02-04T03:38:50;100315.34;;;7.57;100.00
9899;BME280;4988;49.238;6.698;2024-02-04T03:41:16;100309.16;;;7.57;100.00
9899;BME280;4988;49.238;6.698;2024-02-04T03:43:41;100312.69;;;7.56;100.00
9899;BME280;4988;49.238;6.698;2024-02-04T03:46:06;100311.84;;;7.55;100.00
9899;BME280;4988;49.238;6.698;2024-02-04T03:48:32;100316.22;;;7.58;100.00
9899;BME280;4988;49.238;6.698;2024-02-04T03:50:58;100318.91;;;7.56;100.00
9899;BME280;4988;49.238;6.698;2024-02-04T03:53:24;100320.66;;;7.56;100.00
9899;BME280;4988;49.238;6.698;2024-02-04T03:55:50;100313.59;;;7.56;100.00
9899;BME280;4988;49.238;6.698;2024-02-04T03:58:15;100320.66;;;7.57;100.00
9899;BME280;4988;49.238;6.698;2024-02-04T04:00:41;100317.09;;;7.57;100.00
9899;BME280;4988;49.238;6.698;2024-02-04T04:03:06;100318.91;;;7.56;100.00
9899;BME280;4988;49.238;6.698;2024-02-04T04:05:31;100327.72;;;7.57;100.00
9899;BME280;4988;49.238;6.698;2024-02-04T04:07:57;100317.09;;;7.57;100.00
9899;BME280;4988;49.238;6.698;2024-02-04T04:10:22;100316.25;;;7.56;100.00
9899;BME280;4988;49.238;6.698;2024-02-04T04:12:48;100309.16;;;7.57;100.00
9899;BME280;4988;49.238;6.698;2024-02-04T04:15:13;100316.22;;;7.58;100.00
9899;BME280;4988;49.238;6.698;2024-02-04T04:17:38;100318.88;;;7.58;100.00
9899;BME280;4988;49.238;6.698;2024-02-04T04:20:06;100316.22;;;7.58;100.00
9899;BME280;4988;49.238;6.698;2024-02-04T04:22:31;100323.28;;;7.59;100.00
9899;BME280;4988;49.238;6.698;2024-02-04T04:24:57;100326.81;;;7.58;100.00
9899;BME280;4988;49.238;6.698;2024-02-04T04:27:22;100326.84;;;7.56;100.00
9899;BME280;4988;49.238;6.698;2024-02-04T04:29:47;100321.53;;;7.55;100.00
9899;BME280;4988;49.238;6.698;2024-02-04T04:32:13;100328.59;;;7.56;100.00
9899;BME280;4988;49.238;6.698;2024-02-04T04:34:38;100325.13;;;7.54;100.00
9899;BME280;4988;49.238;6.698;2024-02-04T04:37:03;100329.50;;;7.55;100.00
9899;BME280;4988;49.238;6.698;2024-02-04T04:39:28;100329.50;;;7.55;100.00
9899;BME280;4988;49.238;6.698;2024-02-04T04:41:54;100330.41;;;7.54;100.00
9899;BME280;4988;49.238;6.698;2024-02-04T04:44:19;100325.09;;;7.55;100.00
9899;BME280;4988;49.238;6.698;2024-02-04T04:46:44;100334.78;;;7.56;100.00
9899;BME280;4988;49.238;6.698;2024-02-04T04:49:10;100328.59;;;7.56;100.00
9899;BME280;4988;49.238;6.698;2024-02-04T04:51:35;100331.25;;;7.56;100.00
9899;BME280;4988;49.238;6.698;2024-02-04T04:54:00;100325.03;;;7.59;100.00
9899;BME280;4988;49.238;6.698;2024-02-04T04:56:26;100325.06;;;7.57;100.00
9899;BME280;4988;49.238;6.698;2024-02-04T04:58:51;100325.94;;;7.57;100.00
9899;BME280;4988;49.238;6.698;2024-02-04T05:01:16;100323.31;;;7.57;100.00
9899;BME280;4988;49.238;6.698;2024-02-04T05:03:42;100321.50;;;7.58;100.00
9899;BME280;4988;49.238;6.698;2024-02-04T05:06:07;100332.13;;;7.58;100.00
9899;BME280;4988;49.238;6.698;2024-02-04T05:08:33;100325.03;;;7.60;100.00
9899;BME280;4988;49.238;6.698;2024-02-04T05:10:58;100326.75;;;7.61;100.00
9899;BME280;4988;49.238;6.698;2024-02-04T05:13:23;100327.69;;;7.60;100.00
9899;BME280;4988;49.238;6.698;2024-02-04T05:15:49;100317.97;;;7.59;100.00
9899;BME280;4988;49.238;6.698;2024-02-04T05:18:14;100312.69;;;7.59;100.00
9899;BME280;4988;49.238;6.698;2024-02-04T05:20:39;100316.22;;;7.58;100.00
9899;BME280;4988;49.238;6.698;2024-02-04T05:23:05;100313.56;;;7.58;100.00
9899;BME280;4988;49.238;6.698;2024-02-04T05:25:30;100317.09;;;7.59;100.00
9899;BME280;4988;49.238;6.698;2024-02-04T05:27:56;100316.22;;;7.58;100.00
9899;BME280;4988;49.238;6.698;2024-02-04T05:30:21;100317.09;;;7.59;100.00
9899;BME280;4988;49.238;6.698;2024-02-04T05:32:47;100326.81;;;7.58;100.00
9899;BME280;4988;49.238;6.698;2024-02-04T05:35:12;100320.63;;;7.59;100.00
9899;BME280;4988;49.238;6.698;2024-02-04T05:37:37;100323.28;;;7.59;100.00
9899;BME280;4988;49.238;6.698;2024-02-04T05:40:03;100325.03;;;7.60;100.00
9899;BME280;4988;49.238;6.698;2024-02-04T05:42:29;100320.59;;;7.61;100.00
9899;BME280;4988;49.238;6.698;2024-02-04T05:44:57;100316.19;;;7.60;100.00
9899;BME280;4988;49.238;6.698;2024-02-04T05:47:22;100310.88;;;7.60;100.00
9899;BME280;4988;49.238;6.698;2024-02-04T05:49:47;100315.28;;;7.61;100.00
9899;BME280;4988;49.238;6.698;2024-02-04T05:52:14;100317.97;;;7.59;100.00
9899;BME280;4988;49.238;6.698;2024-02-04T05:54:39;100325.03;;;7.60;100.00
9899;BME280;4988;49.238;6.698;2024-02-04T05:57:05;100313.56;;;7.58;100.00
9899;BME280;4988;49.238;6.698;2024-02-04T05:59:31;100309.13;;;7.59;100.00
9899;BME280;4988;49.238;6.698;2024-02-04T06:01:56;100305.66;;;7.56;100.00
9899;BME280;4988;49.238;6.698;2024-02-04T06:04:21;100311.81;;;7.57;100.00
9899;BME280;4988;49.238;6.698;2024-02-04T06:06:47;100312.72;;;7.57;100.00
9899;BME280;4988;49.238;6.698;2024-02-04T06:09:12;100313.56;;;7.58;100.00
9899;BME280;4988;49.238;6.698;2024-02-04T06:11:37;100322.41;;;7.57;100.00
9899;BME280;4988;49.238;6.698;2024-02-04T06:14:03;100332.09;;;7.60;100.00
9899;BME280;4988;49.238;6.698;2024-02-04T06:16:28;100332.97;;;7.60;100.00
9899;BME280;4988;49.238;6.698;2024-02-04T06:18:53;100327.69;;;7.60;100.00
9899;BME280;4988;49.238;6.698;2024-02-04T06:21:23;100314.44;;;7.60;100.00
9899;BME280;4988;49.238;6.698;2024-02-04T06:23:48;100313.50;;;7.61;100.00
9899;BME280;4988;49.238;6.698;2024-02-04T06:26:14;100317.91;;;7.62;100.00
9899;BME280;4988;49.238;6.698;2024-02-04T06:28:39;100322.28;;;7.65;100.00
9899;BME280;4988;49.238;6.698;2024-02-04T06:31:08;100317.00;;;7.65;100.00
9899;BME280;4988;49.238;6.698;2024-02-04T06:33:33;100319.63;;;7.66;100.00
9899;BME280;4988;49.238;6.698;2024-02-04T06:35:58;100323.09;;;7.71;100.00
9899;BME280;4988;49.238;6.698;2024-02-04T06:38:24;100307.19;;;7.71;100.00
9899;BME280;4988;49.238;6.698;2024-02-04T06:40:49;100298.34;;;7.71;100.00
9899;BME280;4988;49.238;6.698;2024-02-04T06:43:14;100300.13;;;7.70;100.00
9899;BME280;4988;49.238;6.698;2024-02-04T06:45:40;100293.06;;;7.69;100.00
9899;BME280;4988;49.238;6.698;2024-02-04T06:48:05;100290.47;;;7.68;100.00
9899;BME280;4988;49.238;6.698;2024-02-04T06:50:31;100300.19;;;7.66;100.00
9899;BME280;4988;49.238;6.698;2024-02-04T06:52:56;100302.91;;;7.63;100.00
9899;BME280;4988;49.238;6.698;2024-02-04T06:55:21;100311.75;;;7.62;100.00
9899;BME280;4988;49.238;6.698;2024-02-04T06:57:46;100312.69;;;7.59;100.00
9899;BME280;4988;49.238;6.698;2024-02-04T07:00:12;100311.78;;;7.59;100.00
9899;BME280;4988;49.238;6.698;2024-02-04T07:02:38;100307.41;;;7.57;100.00
9899;BME280;4988;49.238;6.698;2024-02-04T07:05:04;100311.84;;;7.55;100.00
9899;BME280;4988;49.238;6.698;2024-02-04T07:07:29;100315.38;;;7.54;100.00
9899;BME280;4988;49.238;6.698;2024-02-04T07:09:57;100317.16;;;7.52;100.00
9899;BME280;4988;49.238;6.698;2024-02-04T07:12:22;100319.81;;;7.52;100.00
9899;BME280;4988;49.238;6.698;2024-02-04T07:14:47;100337.44;;;7.55;100.00
9899;BME280;4988;49.238;6.698;2024-02-04T07:17:12;100331.31;;;7.51;100.00
9899;BME280;4988;49.238;6.698;2024-02-04T07:19:38;100331.34;;;7.50;100.00
9899;BME280;4988;49.238;6.698;2024-02-04T07:22:03;100331.41;;;7.47;100.00
9899;BME280;4988;49.238;6.698;2024-02-04T07:24:29;100341.09;;;7.46;100.00
9899;BME280;4988;49.238;6.698;2024-02-04T07:26:54;100341.13;;;7.45;100.00
9899;BME280;4988;49.238;6.698;2024-02-04T07:29:19;100327.03;;;7.44;100.00
9899;BME280;4988;49.238;6.698;2024-02-04T07:31:44;100339.38;;;7.44;100.00
9899;BME280;4988;49.238;6.698;2024-02-04T07:34:10;100342.03;;;7.44;100.00
9899;BME280;4988;49.238;6.698;2024-02-04T07:36:35;100335.84;;;7.45;100.00
9899;BME280;4988;49.238;6.698;2024-02-04T07:39:00;100333.22;;;7.43;100.00
9899;BME280;4988;49.238;6.698;2024-02-04T07:41:29;100325.25;;;7.45;100.00
9899;BME280;4988;49.238;6.698;2024-02-04T07:43:55;100334.06;;;7.44;100.00
9899;BME280;4988;49.238;6.698;2024-02-04T07:46:20;100328.78;;;7.44;100.00
9899;BME280;4988;49.238;6.698;2024-02-04T07:48:46;100334.06;;;7.44;100.00
9899;BME280;4988;49.238;6.698;2024-02-04T07:51:12;100342.91;;;7.43;100.00
9899;BME280;4988;49.238;6.698;2024-02-04T07:53:37;100351.72;;;7.45;100.00
9899;BME280;4988;49.238;6.698;2024-02-04T07:56:02;100351.75;;;7.43;100.00
9899;BME280;4988;49.238;6.698;2024-02-04T07:58:32;100354.41;;;7.43;100.00
9899;BME280;4988;49.238;6.698;2024-02-04T08:00:57;100352.59;;;7.47;100.00
9899;BME280;4988;49.238;6.698;2024-02-04T08:03:23;100355.25;;;7.45;100.00
9899;BME280;4988;49.238;6.698;2024-02-04T08:05:48;100348.22;;;7.43;100.00
9899;BME280;4988;49.238;6.698;2024-02-04T08:08:13;100340.25;;;7.43;100.00
9899;BME280;4988;49.238;6.698;2024-02-04T08:10:39;100342.00;;;7.45;100.00
9899;BME280;4988;49.238;6.698;2024-02-04T08:13:04;100322.56;;;7.46;100.00
9899;BME280;4988;49.238;6.698;2024-02-04T08:15:29;100319.94;;;7.45;100.00
9899;BME280;4988;49.238;6.698;2024-02-04T08:17:55;100327.88;;;7.45;100.00
9899;BME280;4988;49.238;6.698;2024-02-04T08:20:20;100319.91;;;7.46;100.00
9899;BME280;4988;49.238;6.698;2024-02-04T08:22:46;100304.00;;;7.48;100.00
9899;BME280;4988;49.238;6.698;2024-02-04T08:25:12;100292.53;;;7.47;100.00
9899;BME280;4988;49.238;6.698;2024-02-04T08:27:37;100311.97;;;7.48;100.00
9899;BME280;4988;49.238;6.698;2024-02-04T08:30:03;100321.69;;;7.46;100.00
9899;BME280;4988;49.238;6.698;2024-02-04T08:32:30;100333.16;;;7.48;100.00
9899;BME280;4988;49.238;6.698;2024-02-04T08:34:55;100338.47;;;7.48;100.00
9899;BME280;4988;49.238;6.698;2024-02-04T08:37:21;100328.72;;;7.48;100.00
9899;BME280;4988;49.238;6.698;2024-02-04T08:39:46;100327.78;;;7.52;100.00
9899;BME280;4988;49.238;6.698;2024-02-04T08:42:11;100331.31;;;7.53;100.00
9899;BME280;4988;49.238;6.698;2024-02-04T08:44:36;100336.63;;;7.53;100.00
9899;BME280;4988;49.238;6.698;2024-02-04T08:47:02;100330.41;;;7.54;100.00
9899;BME280;4988;49.238;6.698;2024-02-04T08:49:29;100324.19;;;7.56;100.00
9899;BME280;4988;49.238;6.698;2024-02-04T08:51:54;100327.69;;;7.59;100.00
9899;BME280;4988;49.238;6.698;2024-02-04T08:54:19;100322.38;;;7.60;100.00
9899;BME280;4988;49.238;6.698;2024-02-04T08:56:45;100322.41;;;7.57;100.00
9899;BME280;4988;49.238;6.698;2024-02-04T08:59:10;100318.88;;;7.58;100.00
9899;BME280;4988;49.238;6.698;2024-02-04T09:01:35;100325.91;;;7.59;100.00
9899;BME280;4988;49.238;6.698;2024-02-04T09:04:01;100326.75;;;7.61;100.00
9899;BME280;4988;49.238;6.698;2024-02-04T09:06:26;100332.06;;;7.61;100.00
9899;BME280;4988;49.238;6.698;2024-02-04T09:08:51;100337.34;;;7.61;100.00
9899;BME280;4988;49.238;6.698;2024-02-04T09:11:17;100331.16;;;7.62;100.00
9899;BME280;4988;49.238;6.698;2024-02-04T09:13:47;100325.88;;;7.62;100.00
9899;BME280;4988;49.238;6.698;2024-02-04T09:16:12;100323.22;;;7.64;100.00
9899;BME280;4988;49.238;6.698;2024-02-04T09:18:37;100320.56;;;7.64;100.00
9899;BME280;4988;49.238;6.698;2024-02-04T09:21:03;100312.59;;;7.65;100.00
9899;BME280;4988;49.238;6.698;2024-02-04T09:23:28;100311.72;;;7.63;100.00
9899;BME280;4988;49.238;6.698;2024-02-04T09:25:54;100309.03;;;7.65;100.00
9899;BME280;4988;49.238;6.698;2024-02-04T09:28:19;100326.72;;;7.64;100.00
9899;BME280;4988;49.238;6.698;2024-02-04T09:30:45;100314.34;;;7.66;100.00
9899;BME280;4988;49.238;6.698;2024-02-04T09:33:11;100323.19;;;7.65;100.00
9899;BME280;4988;49.238;6.698;2024-02-04T09:35:36;100322.28;;;7.66;100.00
9899;BME280;4988;49.238;6.698;2024-02-04T09:38:02;100332.88;;;7.66;100.00
9899;BME280;4988;49.238;6.698;2024-02-04T09:40:27;100326.72;;;7.64;100.00
9899;BME280;4988;49.238;6.698;2024-02-04T09:42:52;100318.81;;;7.63;100.00
9899;BME280;4988;49.238;6.698;2024-02-04T09:45:19;100322.31;;;7.63;100.00
9899;BME280;4988;49.238;6.698;2024-02-04T09:47:45;100310.84;;;7.61;100.00
9899;BME280;4988;49.238;6.698;2024-02-04T09:50:11;100311.75;;;7.62;100.00
9899;BME280;4988;49.238;6.698;2024-02-04T09:52:39;100315.19;;;7.67;100.00
9899;BME280;4988;49.238;6.698;2024-02-04T09:55:07;100313.41;;;7.69;100.00
9899;BME280;4988;49.238;6.698;2024-02-04T09:57:34;100316.06;;;7.67;100.00
9899;BME280;4988;49.238;6.698;2024-02-04T10:00:02;100316.06;;;7.67;100.00
9899;BME280;4988;49.238;6.698;2024-02-04T10:02:33;100323.19;;;7.65;100.00
9899;BME280;4988;49.238;6.698;2024-02-04T10:04:58;100322.25;;;7.68;100.00
9899;BME280;4988;49.238;6.698;2024-02-04T10:07:23;100322.25;;;7.68;100.00
9899;BME280;4988;49.238;6.698;2024-02-04T10:09:49;100332.78;;;7.71;100.00
9899;BME280;4988;49.238;6.698;2024-02-04T10:12:15;100339.00;;;7.71;100.00
9899;BME280;4988;49.238;6.698;2024-02-04T10:14:40;100338.16;;;7.68;100.00
9899;BME280;4988;49.238;6.698;2024-02-04T10:17:06;100347.78;;;7.73;100.00
9899;BME280;4988;49.238;6.698;2024-02-04T10:19:32;100346.03;;;7.72;100.00
9899;BME280;4988;49.238;6.698;2024-02-04T10:22:01;100344.22;;;7.75;100.00
9899;BME280;4988;49.238;6.698;2024-02-04T10:24:27;100344.22;;;7.75;100.00
9899;BME280;4988;49.238;6.698;2024-02-04T10:26:54;100346.00;;;7.76;100.00
9899;BME280;4988;49.238;6.698;2024-02-04T10:29:20;100356.56;;;7.79;100.00
9899;BME280;4988;49.238;6.698;2024-02-04T10:31:45;100351.25;;;7.79;100.00
9899;BME280;4988;49.238;6.698;2024-02-04T10:34:10;100349.50;;;7.78;100.00
9899;BME280;4988;49.238;6.698;2024-02-04T10:36:35;100353.91;;;7.77;100.00
9899;BME280;4988;49.238;6.698;2024-02-04T10:39:01;100345.09;;;7.77;100.00
9899;BME280;4988;49.238;6.698;2024-02-04T10:41:29;100341.53;;;7.78;100.00
9899;BME280;4988;49.238;6.698;2024-02-04T10:43:54;100338.88;;;7.79;100.00
9899;BME280;4988;49.238;6.698;2024-02-04T10:46:20;100348.56;;;7.80;100.00
9899;BME280;4988;49.238;6.698;2024-02-04T10:48:55;100352.09;;;7.82;100.00
9899;BME280;4988;49.238;6.698;2024-02-04T10:51:26;100358.22;;;7.86;100.00
9899;BME280;4988;49.238;6.698;2024-02-04T10:53:54;100354.66;;;7.87;100.00
9899;BME280;4988;49.238;6.698;2024-02-04T10:56:37;100365.22;;;7.90;100.00
9899;BME280;4988;49.238;6.698;2024-02-04T10:59:07;100355.47;;;7.91;100.00
9899;BME280;4988;49.238;6.698;2024-02-04T11:01:33;100358.06;;;7.95;100.00
9899;BME280;4988;49.238;6.698;2024-02-04T11:03:59;100356.31;;;7.96;100.00
9899;BME280;4988;49.238;6.698;2024-02-04T11:06:26;100348.34;;;7.96;100.00
9899;BME280;4988;49.238;6.698;2024-02-04T11:08:52;100336.84;;;7.95;100.00
9899;BME280;4988;49.238;6.698;2024-02-04T11:11:20;100334.16;;;7.97;100.00
9899;BME280;4988;49.238;6.698;2024-02-04T11:13:50;100319.97;;;7.99;100.00
9899;BME280;4988;49.238;6.698;2024-02-04T11:16:37;100304.91;;;8.04;100.00
9899;BME280;4988;49.238;6.698;2024-02-04T11:19:25;100303.91;;;8.10;100.00
9899;BME280;4988;49.238;6.698;2024-02-04T11:27:20;100285.16;;;8.21;100.00
9899;BME280;4988;49.238;6.698;2024-02-04T11:29:46;100277.06;;;8.27;100.00
9899;BME280;4988;49.238;6.698;2024-02-04T11:32:12;100283.22;;;8.31;100.00
9899;BME280;4988;49.238;6.698;2024-02-04T11:34:37;100277.88;;;8.32;100.00
9899;BME280;4988;49.238;6.698;2024-02-04T11:37:16;100278.59;;;8.41;100.00
9899;BME280;4988;49.238;6.698;2024-02-04T11:39:53;100285.63;;;8.43;100.00
9899;BME280;4988;49.238;6.698;2024-02-04T11:42:22;100278.50;;;8.48;100.00
9899;BME280;4988;49.238;6.698;2024-02-04T11:44:48;100267.81;;;8.51;100.00
9899;BME280;4988;49.238;6.698;2024-02-04T11:47:23;100270.44;;;8.53;100.00
9899;BME280;4988;49.238;6.698;2024-02-04T11:49:58;100260.69;;;8.53;100.00
9899;BME280;4988;49.238;6.698;2024-02-04T11:52:27;100260.72;;;8.52;100.00
9899;BME280;4988;49.238;6.698;2024-02-04T11:54:53;100256.28;;;8.54;100.00
9899;BME280;4988;49.238;6.698;2024-02-04T11:57:19;100262.44;;;8.55;100.00
9899;BME280;4988;49.238;6.698;2024-02-04T11:59:46;100252.59;;;8.61;100.00
9899;BME280;4988;49.238;6.698;2024-02-04T12:02:12;100257.94;;;8.58;100.00
9899;BME280;4988;49.238;6.698;2024-02-04T12:04:40;100253.50;;;8.60;100.00
9899;BME280;4988;49.238;6.698;2024-02-04T12:07:07;100241.09;;;8.61;100.00
9899;BME280;4988;49.238;6.698;2024-02-04T12:09:34;100243.72;;;8.62;100.00
9899;BME280;4988;49.238;6.698;2024-02-04T12:12:00;100239.28;;;8.63;100.00
9899;BME280;4988;49.238;6.698;2024-02-04T12:14:27;100239.22;;;8.66;100.00
9899;BME280;4988;49.238;6.698;2024-02-04T12:16:52;100225.03;;;8.68;100.00
9899;BME280;4988;49.238;6.698;2024-02-04T12:19:17;100218.78;;;8.71;100.00
9899;BME280;4988;49.238;6.698;2024-02-04T12:21:43;100222.28;;;8.72;100.00
9899;BME280;4988;49.238;6.698;2024-02-04T12:24:08;100213.34;;;8.76;100.00
9899;BME280;4988;49.238;6.698;2024-02-04T12:26:33;100234.44;;;8.82;100.00
9899;BME280;4988;49.238;6.698;2024-02-04T12:29:00;100232.69;;;8.82;100.00
9899;BME280;4988;49.238;6.698;2024-02-04T12:31:26;100221.97;;;8.87;100.00
9899;BME280;4988;49.238;6.698;2024-02-04T12:33:58;100221.91;;;8.90;100.00
9899;BME280;4988;49.238;6.698;2024-02-04T12:36:25;100214.84;;;8.89;100.00
9899;BME280;4988;49.238;6.698;2024-02-04T12:38:55;100220.16;;;8.89;100.00
9899;BME280;4988;49.238;6.698;2024-02-04T12:41:25;100217.47;;;8.91;100.00
9899;BME280;4988;49.238;6.698;2024-02-04T12:43:55;100214.81;;;8.91;100.00
9899;BME280;4988;49.238;6.698;2024-02-04T12:46:22;100206.78;;;8.94;100.00
9899;BME280;4988;49.238;6.698;2024-02-04T12:48:51;100211.22;;;8.93;100.00
9899;BME280;4988;49.238;6.698;2024-02-04T12:51:29;100200.53;;;8.96;100.00
9899;BME280;4988;49.238;6.698;2024-02-04T12:54:04;100196.91;;;8.99;100.00
9899;BME280;4988;49.238;6.698;2024-02-04T12:59:09;100197.69;;;9.04;100.00
9899;BME280;4988;49.238;6.698;2024-02-04T13:01:38;100195.03;;;9.04;100.00
9899;BME280;4988;49.238;6.698;2024-02-04T13:04:04;100193.25;;;9.05;100.00
9899;BME280;4988;49.238;6.698;2024-02-04T13:06:30;100183.50;;;9.05;100.00
9899;BME280;4988;49.238;6.698;2024-02-04T13:08:56;100183.50;;;9.05;100.00
9899;BME280;4988;49.238;6.698;2024-02-04T13:11:24;100179.78;;;9.12;100.00
9899;BME280;4988;49.238;6.698;2024-02-04T13:13:49;100180.75;;;9.10;100.00
9899;BME280;4988;49.238;6.698;2024-02-04T13:16:14;100176.22;;;9.13;100.00